createdAt,value
2022-11-25T00:03:49.183Z,22.93
2022-11-25T00:08:54.536Z,22.93
2022-11-25T00:13:59.340Z,22.91
2022-11-25T00:19:02.088Z,22.90
2022-11-25T00:24:07.221Z,22.89
2022-11-25T00:29:14.408Z,22.85
2022-11-25T00:34:17.163Z,22.85
2022-11-25T00:39:24.384Z,22.83
2022-11-25T00:44:38.579Z,22.83
2022-11-25T00:49:44.543Z,22.83
2022-11-25T00:54:48.606Z,22.80
2022-11-25T00:59:52.807Z,22.81
2022-11-25T01:04:57.086Z,22.78
2022-11-25T01:09:59.832Z,22.76
2022-11-25T01:15:03.955Z,22.75
2022-11-25T01:20:08.205Z,22.76
2022-11-25T01:25:11.107Z,22.75
2022-11-25T01:30:17.095Z,22.73
2022-11-25T01:35:19.865Z,22.74
2022-11-25T01:40:22.749Z,22.72
2022-11-25T01:45:38.478Z,22.72
2022-11-25T01:50:43.488Z,22.67
2022-11-25T01:55:52.462Z,22.65
2022-11-25T02:00:56.741Z,22.65
2022-11-25T02:06:06.931Z,22.62
2022-11-25T02:11:10.040Z,22.61
2022-11-25T02:16:14.255Z,22.61
2022-11-25T02:21:21.615Z,22.61
2022-11-25T02:26:25.898Z,22.58
2022-11-25T02:31:28.926Z,22.58
2022-11-25T02:36:31.887Z,22.61
2022-11-25T02:41:38.753Z,22.59
2022-11-25T02:46:41.974Z,22.58
2022-11-25T02:51:46.310Z,22.55
2022-11-25T02:56:50.394Z,22.54
2022-11-25T03:01:53.325Z,22.54
2022-11-25T03:06:56.113Z,22.52
2022-11-25T03:12:19.106Z,22.49
2022-11-25T03:17:22.103Z,22.51
2022-11-25T03:22:25.338Z,22.53
2022-11-25T03:27:30.486Z,22.53
2022-11-25T03:32:34.115Z,22.50
2022-11-25T03:37:37.199Z,22.50
2022-11-25T03:42:42.424Z,22.49
2022-11-25T03:47:46.571Z,22.46
2022-11-25T03:52:49.531Z,22.47
2022-11-25T03:57:55.238Z,22.45
2022-11-25T04:02:59.814Z,22.43
2022-11-25T04:08:02.710Z,22.41
2022-11-25T04:13:08.600Z,22.42
2022-11-25T04:18:15.458Z,22.42
2022-11-25T04:23:19.243Z,22.41
2022-11-25T04:28:32.353Z,22.40
2022-11-25T04:33:35.131Z,22.30
2022-11-25T04:38:38.560Z,21.68
2022-11-25T04:43:43.842Z,21.91
2022-11-25T04:48:49.429Z,21.98
2022-11-25T04:53:52.580Z,22.03
2022-11-25T04:59:14.037Z,22.07
2022-11-25T05:04:20.953Z,22.06
2022-11-25T05:09:24.674Z,22.09
2022-11-25T05:14:40.063Z,22.08
2022-11-25T05:19:44.073Z,22.07
2022-11-25T05:24:47.166Z,22.08
2022-11-25T05:29:55.987Z,22.09
2022-11-25T05:35:00.201Z,22.10
2022-11-25T05:40:04.321Z,22.09
2022-11-25T05:45:34.473Z,22.08
2022-11-25T05:50:38.740Z,22.07
2022-11-25T05:56:08.763Z,22.07
2022-11-25T06:01:34.567Z,22.05
2022-11-25T06:06:37.445Z,22.06
2022-11-25T06:11:40.307Z,22.07
2022-11-25T06:16:45.699Z,22.06
2022-11-25T06:22:03.218Z,22.07
2022-11-25T06:27:06.403Z,22.06
2022-11-25T06:32:11.348Z,22.06
2022-11-25T06:37:28.004Z,22.05
2022-11-25T06:42:30.785Z,22.05
2022-11-25T06:47:34.910Z,22.04
2022-11-25T06:52:37.733Z,22.03
2022-11-25T06:57:40.521Z,22.04
2022-11-25T07:02:48.525Z,22.03
2022-11-25T07:07:51.831Z,22.04
2022-11-25T07:12:54.648Z,22.02
2022-11-25T07:17:58.715Z,22.03
2022-11-25T07:23:01.705Z,22.03
2022-11-25T07:28:04.769Z,22.04
2022-11-25T07:33:09.020Z,22.07
2022-11-25T07:38:11.824Z,22.06
2022-11-25T07:43:14.773Z,22.07
2022-11-25T07:48:18.890Z,22.09
2022-11-25T07:53:21.874Z,22.10
2022-11-25T07:58:24.635Z,22.11
2022-11-25T08:03:28.743Z,22.11
2022-11-25T08:08:31.753Z,22.13
2022-11-25T08:13:34.529Z,22.13
2022-11-25T08:18:38.768Z,22.10
2022-11-25T08:23:43.953Z,22.04
2022-11-25T08:28:47.978Z,21.02
2022-11-25T08:33:53.745Z,20.37
2022-11-25T08:38:58.647Z,20.22
2022-11-25T08:44:04.798Z,20.61
2022-11-25T08:49:10.714Z,20.82
2022-11-25T08:54:14.385Z,20.96
2022-11-25T08:59:17.174Z,21.07
2022-11-25T09:04:21.378Z,21.18
2022-11-25T09:09:24.204Z,21.26
2022-11-25T09:14:27.255Z,21.32
2022-11-25T09:19:31.486Z,21.36
2022-11-25T09:24:35.921Z,21.42
2022-11-25T09:29:39.663Z,21.45
2022-11-25T09:34:44.034Z,21.49
2022-11-25T09:39:46.850Z,21.53
2022-11-25T09:45:21.648Z,21.58
2022-11-25T09:50:40.693Z,21.60
2022-11-25T09:55:47.220Z,21.63
2022-11-25T10:00:52.503Z,21.66
2022-11-25T10:06:04.101Z,21.71
2022-11-25T10:11:23.386Z,21.75
2022-11-25T10:16:36.428Z,21.78
2022-11-25T10:21:40.914Z,21.82
2022-11-25T10:26:45.790Z,21.84
2022-11-25T10:31:51.554Z,21.87
2022-11-25T10:36:58.229Z,21.88
2022-11-25T10:42:08.260Z,21.91
2022-11-25T10:47:24.745Z,21.93
2022-11-25T10:52:30.557Z,21.99
2022-11-25T10:57:33.327Z,21.98
2022-11-25T11:02:40.353Z,22.00
2022-11-25T11:07:46.139Z,22.02
2022-11-25T11:12:57.030Z,22.05
2022-11-25T11:18:01.862Z,22.15
2022-11-25T11:23:15.394Z,22.21
2022-11-25T11:28:27.519Z,22.21
2022-11-25T11:33:35.478Z,22.26
2022-11-25T11:38:52.728Z,22.32
2022-11-25T11:44:10.124Z,22.36
2022-11-25T11:49:38.078Z,22.13
2022-11-25T11:54:46.498Z,22.23
2022-11-25T11:59:50.823Z,22.25
2022-11-25T12:05:02.969Z,22.32
2022-11-25T12:10:21.093Z,22.37
2022-11-25T12:15:33.224Z,22.32
2022-11-25T12:20:43.548Z,22.31
2022-11-25T12:25:52.960Z,22.30
2022-11-25T12:31:07.233Z,22.35
2022-11-25T12:36:16.860Z,22.36
2022-11-25T12:41:27.925Z,22.38
2022-11-25T12:46:37.631Z,22.37
2022-11-25T12:52:01.574Z,22.44
2022-11-25T12:57:27.874Z,22.50
2022-11-25T13:02:55.550Z,22.53
2022-11-25T13:08:11.998Z,22.61
2022-11-25T13:13:33.257Z,22.66
2022-11-25T13:18:42.660Z,22.72
2022-11-25T13:23:52.040Z,22.77
2022-11-25T13:28:57.024Z,22.81
2022-11-25T13:34:09.525Z,22.87
2022-11-25T13:39:15.891Z,22.90
2022-11-25T13:44:32.437Z,22.92
2022-11-25T13:49:44.295Z,22.95
2022-11-25T13:54:50.598Z,22.97
2022-11-25T13:59:57.955Z,23.01
2022-11-25T14:05:09.721Z,23.04
2022-11-25T14:10:27.597Z,23.05
2022-11-25T14:16:07.267Z,23.05
2022-11-25T14:21:25.179Z,23.06
2022-11-25T14:26:49.323Z,23.07
2022-11-25T14:31:58.712Z,23.12
2022-11-25T14:37:11.571Z,23.18
2022-11-25T14:42:17.513Z,23.15
2022-11-25T14:47:24.744Z,23.17
2022-11-25T14:52:30.007Z,23.17
2022-11-25T14:57:37.199Z,23.20
2022-11-25T15:02:52.475Z,23.15
2022-11-25T15:07:59.296Z,23.17
2022-11-25T15:13:12.429Z,23.15
2022-11-25T15:18:22.656Z,23.14
2022-11-25T15:23:31.697Z,23.17
2022-11-25T15:28:36.518Z,23.19
2022-11-25T15:33:42.469Z,23.18
2022-11-25T15:38:47.038Z,23.19
2022-11-25T15:43:51.813Z,23.20
2022-11-25T15:48:59.107Z,23.19
2022-11-25T15:54:06.155Z,23.22
2022-11-25T15:59:56.603Z,23.24
2022-11-25T16:05:16.546Z,23.23
2022-11-25T16:10:20.028Z,23.27
2022-11-25T16:15:45.119Z,23.26
2022-11-25T16:20:52.130Z,23.25
2022-11-25T16:25:59.735Z,23.26
2022-11-25T16:31:02.545Z,23.26
2022-11-25T16:36:09.642Z,23.28
2022-11-25T16:41:21.133Z,23.39
2022-11-25T16:46:24.166Z,23.49
2022-11-25T16:51:28.385Z,23.56
2022-11-25T16:56:33.190Z,23.58
2022-11-25T17:01:36.207Z,23.60
2022-11-25T17:06:41.314Z,23.65
2022-11-25T17:11:47.021Z,23.71
2022-11-25T17:16:50.179Z,23.77
2022-11-25T17:21:54.409Z,23.78
2022-11-25T17:27:00.412Z,23.88
2022-11-25T17:32:03.717Z,23.92
2022-11-25T17:37:14.875Z,23.95
2022-11-25T17:42:19.511Z,24.00
2022-11-25T17:47:22.487Z,24.05
2022-11-25T17:52:26.687Z,24.08
2022-11-25T17:57:29.739Z,24.13
2022-11-25T18:02:32.554Z,24.18
2022-11-25T18:07:36.877Z,24.21
2022-11-25T18:12:41.057Z,24.25
2022-11-25T18:17:44.473Z,24.28
2022-11-25T18:22:49.440Z,24.32
2022-11-25T18:27:56.239Z,24.35
2022-11-25T18:32:59.186Z,24.37
2022-11-25T18:38:03.391Z,24.41
2022-11-25T18:43:07.582Z,24.45
2022-11-25T18:48:15.753Z,24.47
2022-11-25T18:53:20.627Z,24.47
2022-11-25T18:58:27.169Z,24.43
2022-11-25T19:03:29.974Z,24.36
2022-11-25T19:08:34.154Z,24.27
2022-11-25T19:13:38.100Z,24.20
2022-11-25T19:18:41.486Z,24.25
2022-11-25T19:23:46.318Z,24.25
2022-11-25T19:28:55.854Z,24.18
2022-11-25T19:33:59.210Z,24.17
2022-11-25T19:39:03.347Z,24.15
2022-11-25T19:44:06.105Z,24.09
2022-11-25T19:49:09.092Z,24.05
2022-11-25T19:54:16.502Z,24.06
2022-11-25T19:59:19.335Z,24.00
2022-11-25T20:04:23.403Z,23.95
2022-11-25T20:09:27.555Z,23.96
2022-11-25T20:14:34.538Z,23.94
2022-11-25T20:19:37.652Z,23.94
2022-11-25T20:24:41.885Z,23.93
2022-11-25T20:29:44.651Z,23.92
2022-11-25T20:34:47.919Z,23.90
2022-11-25T20:39:53.871Z,23.90
2022-11-25T20:44:57.872Z,23.87
2022-11-25T20:50:00.897Z,23.84
2022-11-25T20:55:15.503Z,23.82
2022-11-25T21:00:24.193Z,23.84
2022-11-25T21:05:28.378Z,23.79
2022-11-25T21:10:34.719Z,23.80
2022-11-25T21:15:37.856Z,23.78
2022-11-25T21:20:41.687Z,23.81
2022-11-25T21:25:46.537Z,23.76
2022-11-25T21:30:49.523Z,23.77
2022-11-25T21:35:52.549Z,23.72
2022-11-25T21:40:59.148Z,23.73
2022-11-25T21:46:05.276Z,23.73
2022-11-25T21:51:09.562Z,23.74
2022-11-25T21:56:19.003Z,23.70
2022-11-25T22:01:22.696Z,23.68
2022-11-25T22:06:27.698Z,23.67
2022-11-25T22:11:34.105Z,23.64
2022-11-25T22:16:37.591Z,23.64
2022-11-25T22:21:40.420Z,23.61
2022-11-25T22:26:46.559Z,23.61
2022-11-25T22:31:50.893Z,23.64
2022-11-25T22:36:53.741Z,23.58
2022-11-25T22:42:04.422Z,23.57
2022-11-25T22:47:08.751Z,23.56
2022-11-25T22:52:20.478Z,23.55
2022-11-25T22:57:24.648Z,23.53
2022-11-25T23:02:33.882Z,23.54
2022-11-25T23:07:36.802Z,23.54
2022-11-25T23:12:40.941Z,23.53
2022-11-25T23:17:48.826Z,23.52
2022-11-25T23:22:51.618Z,23.49
2022-11-25T23:27:55.895Z,23.52
2022-11-25T23:32:59.047Z,23.49
2022-11-25T23:38:01.818Z,23.50
2022-11-25T23:43:12.892Z,23.49
2022-11-25T23:48:16.337Z,23.45
2022-11-25T23:53:25.673Z,23.47
2022-11-25T23:58:30.067Z,23.43
